Mooleyville, Kentucky
Current Conditions -  °F | °C
As of 3:58 PM on Thursday 27 Nov 2014 (Local Time) from KFTK Reporting Station
Overcast Overcast  
Wind Chill: 21°   Ceiling: 2700
Heat Index: 30°   Visibility: 10mi
Dew Point: 24°   Wind: 10mph
Humidity: 79%   Direction: 260°W
Pressure: 30.38"   Gusts: NA
Location:  37.7834°N, 86.4612°W
Report Text: KFTK 272158Z AUTO 26009KT 10SM SCT019 OVC027 M01/M04 A3038 RMK AO2 CIG 019V027 SLP298 T10121045
Loading
Personal Weather Stations






























Interactive Weather Map New forecast layout! Learn more

10-Day Weather Forecast

Advertisements
Track Severe Weather on mobile